Time,TemperatureF,DewpointF,PressureIn,WindDirection,WindDirectionDegrees,WindSpeedMPH,WindSpeedGustMPH,Humidity,HourlyPrecipIn,Conditions,Clouds,dailyrainin,SolarRadiationWatts/m^2,SoftwareType,DateUTC
2013-10-19 00:04:00,57.0,52.0,-100.00,NNW,333,12.0,21.0,82,0.00,,,0.00,0.000000,,2013-10-19 05:04:00,
2013-10-19 00:42:00,53.0,48.0,-100.00,NNW,327,10.0,17.0,83,0.00,,,0.00,0.000000,,2013-10-19 05:42:00,
2013-10-19 00:52:00,53.0,48.0,-100.00,NNW,327,10.0,17.0,83,0.00,,,0.00,0.000000,,2013-10-19 05:52:00,
2013-10-19 01:02:00,53.0,48.0,-100.00,NNW,327,10.0,17.0,83,0.00,,,0.00,0.000000,,2013-10-19 06:02:00,
2013-10-19 01:42:00,52.0,46.0,-100.00,NNW,333,9.0,17.0,80,0.00,,,0.00,0.000000,,2013-10-19 06:42:00,
2013-10-19 01:52:00,52.0,46.0,-100.00,NNW,333,9.0,17.0,80,0.00,,,0.00,0.000000,,2013-10-19 06:52:00,
2013-10-19 02:02:00,52.0,46.0,-100.00,NNW,333,9.0,17.0,80,0.00,,,0.00,0.000000,,2013-10-19 07:02:00,
2013-10-19 02:42:00,51.0,44.0,-100.00,NNW,338,11.0,19.0,78,0.00,,,0.00,0.000000,,2013-10-19 07:42:00,
2013-10-19 02:53:00,51.0,44.0,-100.00,NNW,338,11.0,19.0,78,0.00,,,0.00,0.000000,,2013-10-19 07:53:00,
2013-10-19 03:03:00,51.0,44.0,-100.00,NNW,338,11.0,19.0,78,0.00,,,0.00,0.000000,,2013-10-19 08:03:00,
2013-10-19 03:42:00,49.0,42.0,-100.00,North,1,10.0,20.0,78,0.00,,,0.00,0.000000,,2013-10-19 08:42:00,
2013-10-19 03:52:00,49.0,42.0,-100.00,North,1,10.0,20.0,78,0.00,,,0.00,0.000000,,2013-10-19 08:52:00,
2013-10-19 04:01:00,49.0,42.0,-100.00,North,1,10.0,20.0,78,0.00,,,0.00,0.000000,,2013-10-19 09:01:00,
2013-10-19 04:43:00,48.0,41.0,-100.00,NNW,337,9.0,18.0,78,0.00,,,0.00,0.000000,,2013-10-19 09:43:00,
2013-10-19 04:54:00,48.0,41.0,-100.00,NNW,337,9.0,18.0,78,0.00,,,0.00,0.000000,,2013-10-19 09:54:00,
2013-10-19 05:03:00,48.0,41.0,-100.00,NNW,337,9.0,18.0,78,0.00,,,0.00,0.000000,,2013-10-19 10:03:00,
2013-10-19 05:42:00,45.0,39.0,-100.00,NNW,340,9.0,20.0,78,0.00,,,0.00,0.000000,,2013-10-19 10:42:00,
2013-10-19 05:53:00,45.0,39.0,-100.00,NNW,340,9.0,20.0,78,0.00,,,0.00,0.000000,,2013-10-19 10:53:00,
2013-10-19 06:03:00,45.0,39.0,-100.00,NNW,340,9.0,20.0,78,0.00,,,0.00,0.000000,,2013-10-19 11:03:00,
2013-10-19 06:42:00,44.0,39.0,-100.00,NNW,342,9.0,16.0,81,0.00,,,0.00,0.000000,,2013-10-19 11:42:00,
2013-10-19 06:52:00,44.0,39.0,-100.00,NNW,342,9.0,16.0,81,0.00,,,0.00,0.000000,,2013-10-19 11:52:00,
2013-10-19 07:01:00,44.0,39.0,-100.00,NNW,342,9.0,16.0,81,0.00,,,0.00,0.000000,,2013-10-19 12:01:00,
2013-10-19 07:43:00,43.0,38.0,-100.00,NNW,331,6.0,16.0,81,0.00,,,0.00,0.000000,,2013-10-19 12:43:00,
2013-10-19 07:52:00,43.0,38.0,-100.00,NNW,331,6.0,16.0,81,0.00,,,0.00,0.000000,,2013-10-19 12:52:00,
2013-10-19 08:01:00,43.0,38.0,-100.00,NNW,331,6.0,16.0,81,0.00,,,0.00,0.000000,,2013-10-19 13:01:00,
2013-10-19 08:42:00,43.0,38.0,-100.00,NNW,332,8.0,14.0,83,0.00,,,0.00,13.000000,,2013-10-19 13:42:00,
2013-10-19 08:52:00,43.0,38.0,-100.00,NNW,332,8.0,14.0,83,0.00,,,0.00,13.000000,,2013-10-19 13:52:00,
2013-10-19 09:02:00,43.0,38.0,-100.00,NNW,332,8.0,14.0,83,0.00,,,0.00,13.000000,,2013-10-19 14:02:00,
2013-10-19 09:42:00,44.0,37.0,-100.00,NNW,330,7.0,14.0,77,0.00,,,0.00,53.000000,,2013-10-19 14:42:00,
2013-10-19 09:52:00,44.0,37.0,-100.00,NNW,330,7.0,14.0,77,0.00,,,0.00,53.000000,,2013-10-19 14:52:00,
2013-10-19 10:02:00,44.0,37.0,-100.00,NNW,330,7.0,14.0,77,0.00,,,0.00,53.000000,,2013-10-19 15:02:00,
2013-10-19 10:44:00,49.0,39.0,-100.00,NNW,341,6.0,12.0,67,0.00,,,0.00,131.000000,,2013-10-19 15:44:00,
2013-10-19 10:55:00,49.0,39.0,-100.00,NNW,341,6.0,12.0,67,0.00,,,0.00,131.000000,,2013-10-19 15:55:00,
2013-10-19 11:04:00,49.0,39.0,-100.00,NNW,341,6.0,12.0,67,0.00,,,0.00,131.000000,,2013-10-19 16:04:00,
2013-10-19 11:43:00,54.0,38.0,-100.00,North,359,6.0,12.0,54,0.00,,,0.00,617.000000,,2013-10-19 16:43:00,
2013-10-19 11:53:00,54.0,38.0,-100.00,North,359,6.0,12.0,54,0.00,,,0.00,617.000000,,2013-10-19 16:53:00,
2013-10-19 12:03:00,54.0,38.0,-100.00,North,359,6.0,12.0,54,0.00,,,0.00,617.000000,,2013-10-19 17:03:00,
2013-10-19 12:43:00,57.0,36.0,-100.00,NNW,339,5.0,11.0,45,0.00,,,0.00,773.000000,,2013-10-19 17:43:00,
2013-10-19 12:52:00,57.0,36.0,-100.00,NNW,339,5.0,11.0,45,0.00,,,0.00,773.000000,,2013-10-19 17:52:00,
2013-10-19 13:02:00,57.0,36.0,-100.00,NNW,339,5.0,11.0,45,0.00,,,0.00,773.000000,,2013-10-19 18:02:00,
2013-10-19 13:42:00,60.0,37.0,-100.00,NNW,345,5.0,11.0,43,0.00,,,0.00,857.000000,,2013-10-19 18:42:00,
2013-10-19 13:52:00,60.0,37.0,-100.00,NNW,345,5.0,11.0,43,0.00,,,0.00,857.000000,,2013-10-19 18:52:00,
2013-10-19 14:02:00,60.0,37.0,-100.00,NNW,345,5.0,11.0,43,0.00,,,0.00,857.000000,,2013-10-19 19:02:00,
2013-10-19 14:42:00,62.0,39.0,-100.00,North,11,6.0,11.0,42,0.00,,,0.00,870.000000,,2013-10-19 19:42:00,
2013-10-19 14:52:00,62.0,39.0,-100.00,North,11,6.0,11.0,42,0.00,,,0.00,870.000000,,2013-10-19 19:52:00,
2013-10-19 15:03:00,62.0,39.0,-100.00,North,11,6.0,11.0,42,0.00,,,0.00,870.000000,,2013-10-19 20:03:00,
2013-10-19 15:42:00,65.0,38.0,-100.00,NNW,335,5.0,11.0,37,0.00,,,0.00,806.000000,,2013-10-19 20:42:00,
2013-10-19 15:52:00,65.0,38.0,-100.00,NNW,335,5.0,11.0,37,0.00,,,0.00,806.000000,,2013-10-19 20:52:00,
2013-10-19 16:02:00,65.0,38.0,-100.00,NNW,335,5.0,11.0,37,0.00,,,0.00,806.000000,,2013-10-19 21:02:00,
2013-10-19 16:44:00,65.0,37.0,-100.00,North,358,5.0,10.0,35,0.00,,,0.00,681.000000,,2013-10-19 21:44:00,
2013-10-19 16:54:00,65.0,37.0,-100.00,North,358,5.0,10.0,35,0.00,,,0.00,681.000000,,2013-10-19 21:54:00,
2013-10-19 17:04:00,65.0,37.0,-100.00,North,358,5.0,10.0,35,0.00,,,0.00,681.000000,,2013-10-19 22:04:00,
2013-10-19 17:43:00,66.0,36.0,-100.00,NNE,13,3.0,7.0,33,0.00,,,0.00,496.000000,,2013-10-19 22:43:00,
2013-10-19 17:53:00,66.0,36.0,-100.00,NNE,13,3.0,7.0,33,0.00,,,0.00,496.000000,,2013-10-19 22:53:00,
2013-10-19 18:03:00,66.0,36.0,-100.00,NNE,13,3.0,7.0,33,0.00,,,0.00,496.000000,,2013-10-19 23:03:00,
2013-10-19 18:42:00,65.0,37.0,-100.00,NNE,24,2.0,7.0,35,0.00,,,0.00,275.000000,,2013-10-19 23:42:00,
2013-10-19 18:52:00,65.0,37.0,-100.00,NNE,24,2.0,7.0,35,0.00,,,0.00,275.000000,,2013-10-19 23:52:00,
2013-10-19 19:02:00,65.0,37.0,-100.00,NNE,24,2.0,7.0,35,0.00,,,0.00,275.000000,,2013-10-20 00:02:00,
2013-10-19 19:42:00,54.0,38.0,-100.00,SSE,154,3.0,4.0,55,0.00,,,0.00,43.000000,,2013-10-20 00:42:00,
2013-10-19 19:52:00,54.0,38.0,-100.00,SSE,154,3.0,4.0,55,0.00,,,0.00,43.000000,,2013-10-20 00:52:00,
2013-10-19 20:02:00,54.0,38.0,-100.00,SSE,154,3.0,4.0,55,0.00,,,0.00,43.000000,,2013-10-20 01:02:00,
2013-10-19 20:42:00,53.0,40.0,-100.00,SE,146,5.0,7.0,62,0.00,,,0.00,0.000000,,2013-10-20 01:42:00,
2013-10-19 20:52:00,53.0,40.0,-100.00,SE,146,5.0,7.0,62,0.00,,,0.00,0.000000,,2013-10-20 01:52:00,
2013-10-19 21:02:00,53.0,40.0,-100.00,SE,146,5.0,7.0,62,0.00,,,0.00,0.000000,,2013-10-20 02:02:00,
2013-10-19 21:42:00,52.0,37.0,-100.00,SE,142,5.0,8.0,57,0.00,,,0.00,0.000000,,2013-10-20 02:42:00,
2013-10-19 21:52:00,52.0,37.0,-100.00,SE,142,5.0,8.0,57,0.00,,,0.00,0.000000,,2013-10-20 02:52:00,
2013-10-19 22:02:00,52.0,37.0,-100.00,SE,142,5.0,8.0,57,0.00,,,0.00,0.000000,,2013-10-20 03:02:00,
2013-10-19 22:44:00,51.0,37.0,-100.00,SE,139,5.0,7.0,59,0.00,,,0.00,0.000000,,2013-10-20 03:44:00,
2013-10-19 22:55:00,51.0,37.0,-100.00,SE,139,5.0,7.0,59,0.00,,,0.00,0.000000,,2013-10-20 03:55:00,
2013-10-19 23:02:00,-999.0,-99.9,-100.00,SE,139,5.0,7.0,-999,-99.99,,,-99.99,0.000000,,2013-10-20 04:02:00,
2013-10-19 23:44:00,51.0,38.0,-100.00,South,173,4.0,7.0,61,0.00,,,0.00,0.000000,,2013-10-20 04:44:00,
2013-10-19 23:54:00,51.0,38.0,-100.00,South,173,4.0,7.0,61,0.00,,,0.00,0.000000,,2013-10-20 04:54:00,